sensor_id;sensor_type;location;lat;lon;timestamp;P1;durP1;ratioP1;P2;durP2;ratioP2
76051;SDS011;64751;48.708;9.710;2023-05-10T14:32:33;0.10;;;0.10;;
76051;SDS011;64751;48.708;9.710;2023-05-10T14:35:02;0.10;;;0.10;;
76051;SDS011;64751;48.708;9.710;2023-05-10T14:37:31;0.38;;;0.10;;
76051;SDS011;64751;48.708;9.710;2023-05-10T14:39:59;0.15;;;0.15;;
76051;SDS011;64751;48.708;9.710;2023-05-10T14:42:30;0.10;;;0.10;;
76051;SDS011;64751;48.708;9.710;2023-05-10T14:44:57;0.63;;;0.20;;
76051;SDS011;64751;48.708;9.710;2023-05-10T14:47:25;0.00;;;0.00;;
76051;SDS011;64751;48.708;9.710;2023-05-10T14:49:54;0.22;;;0.20;;
76051;SDS011;64751;48.708;9.710;2023-05-10T14:52:21;0.00;;;0.00;;
76051;SDS011;64751;48.708;9.710;2023-05-10T14:54:49;0.40;;;0.28;;
76051;SDS011;64751;48.708;9.710;2023-05-10T14:57:16;0.35;;;0.10;;
76051;SDS011;64751;48.708;9.710;2023-05-10T14:59:44;0.10;;;0.10;;
76051;SDS011;64751;48.708;9.710;2023-05-10T15:02:12;0.10;;;0.10;;
76051;SDS011;64751;48.708;9.710;2023-05-10T15:04:40;0.28;;;0.20;;
76051;SDS011;64751;48.708;9.710;2023-05-10T15:07:09;0.15;;;0.15;;
76051;SDS011;64751;48.708;9.710;2023-05-10T15:09:40;0.10;;;0.10;;
76051;SDS011;64751;48.708;9.710;2023-05-10T15:12:08;0.00;;;0.00;;
76051;SDS011;64751;48.708;9.710;2023-05-10T15:14:36;0.10;;;0.10;;
76051;SDS011;64751;48.708;9.710;2023-05-10T15:17:05;0.10;;;0.10;;
76051;SDS011;64751;48.708;9.710;2023-05-10T15:19:33;0.00;;;0.00;;
76051;SDS011;64751;48.708;9.710;2023-05-10T15:22:01;0.17;;;0.17;;
76051;SDS011;64751;48.708;9.710;2023-05-10T15:24:31;0.10;;;0.10;;
76051;SDS011;64751;48.708;9.710;2023-05-10T15:26:58;0.15;;;0.13;;
76051;SDS011;64751;48.708;9.710;2023-05-10T15:29:26;0.10;;;0.10;;
76051;SDS011;64751;48.708;9.710;2023-05-10T15:31:54;0.10;;;0.10;;
76051;SDS011;64751;48.708;9.710;2023-05-10T15:34:21;0.10;;;0.10;;
76051;SDS011;64751;48.708;9.710;2023-05-10T15:36:49;0.00;;;0.00;;
76051;SDS011;64751;48.708;9.710;2023-05-10T15:39:17;0.13;;;0.10;;
76051;SDS011;64751;48.708;9.710;2023-05-10T15:41:46;0.20;;;0.20;;
76051;SDS011;64751;48.708;9.710;2023-05-10T15:44:14;0.20;;;0.10;;
76051;SDS011;64751;48.708;9.710;2023-05-10T15:46:42;0.08;;;0.05;;
76051;SDS011;64751;48.708;9.710;2023-05-10T15:49:10;0.10;;;0.10;;
76051;SDS011;64751;48.708;9.710;2023-05-10T15:51:37;0.10;;;0.10;;
76051;SDS011;64751;48.708;9.710;2023-05-10T15:54:05;0.10;;;0.03;;
76051;SDS011;64751;48.708;9.710;2023-05-10T15:56:33;0.20;;;0.10;;
76051;SDS011;64751;48.708;9.710;2023-05-10T15:59:02;0.10;;;0.10;;
76051;SDS011;64751;48.708;9.710;2023-05-10T16:01:31;0.10;;;0.10;;
76051;SDS011;64751;48.708;9.710;2023-05-10T16:03:59;0.13;;;0.03;;
76051;SDS011;64751;48.708;9.710;2023-05-10T16:06:26;0.00;;;0.00;;
76051;SDS011;64751;48.708;9.710;2023-05-10T16:08:54;0.10;;;0.10;;
76051;SDS011;64751;48.708;9.710;2023-05-10T16:11:22;0.10;;;0.00;;
76051;SDS011;64751;48.708;9.710;2023-05-10T16:13:49;0.05;;;0.05;;
76051;SDS011;64751;48.708;9.710;2023-05-10T16:16:19;0.10;;;0.10;;
76051;SDS011;64751;48.708;9.710;2023-05-10T16:18:46;0.00;;;0.00;;
76051;SDS011;64751;48.708;9.710;2023-05-10T16:21:14;0.20;;;0.20;;
76051;SDS011;64751;48.708;9.710;2023-05-10T16:23:42;0.00;;;0.00;;
76051;SDS011;64751;48.708;9.710;2023-05-10T16:26:11;0.05;;;0.05;;
76051;SDS011;64751;48.708;9.710;2023-05-10T16:28:39;0.20;;;0.20;;
76051;SDS011;64751;48.708;9.710;2023-05-10T16:31:07;0.17;;;0.17;;
76051;SDS011;64751;48.708;9.710;2023-05-10T16:33:36;0.00;;;0.00;;
76051;SDS011;64751;48.708;9.710;2023-05-10T16:36:03;0.10;;;0.10;;
76051;SDS011;64751;48.708;9.710;2023-05-10T16:38:31;0.43;;;0.10;;
76051;SDS011;64751;48.708;9.710;2023-05-10T16:41:00;0.10;;;0.10;;
76051;SDS011;64751;48.708;9.710;2023-05-10T16:43:28;0.10;;;0.10;;
76051;SDS011;64751;48.708;9.710;2023-05-10T16:45:56;0.10;;;0.10;;
76051;SDS011;64751;48.708;9.710;2023-05-10T16:48:24;0.20;;;0.20;;
76051;SDS011;64751;48.708;9.710;2023-05-10T16:50:53;0.22;;;0.20;;
76051;SDS011;64751;48.708;9.710;2023-05-10T16:53:21;0.20;;;0.20;;
76051;SDS011;64751;48.708;9.710;2023-05-10T16:55:49;0.05;;;0.05;;
76051;SDS011;64751;48.708;9.710;2023-05-10T16:58:16;0.13;;;0.13;;
76051;SDS011;64751;48.708;9.710;2023-05-10T17:00:44;0.25;;;0.25;;
76051;SDS011;64751;48.708;9.710;2023-05-10T17:03:12;0.00;;;0.00;;
76051;SDS011;64751;48.708;9.710;2023-05-10T17:05:40;0.00;;;0.00;;
76051;SDS011;64751;48.708;9.710;2023-05-10T17:08:09;0.08;;;0.08;;
76051;SDS011;64751;48.708;9.710;2023-05-10T17:10:38;0.05;;;0.05;;
76051;SDS011;64751;48.708;9.710;2023-05-10T17:13:06;0.20;;;0.15;;
76051;SDS011;64751;48.708;9.710;2023-05-10T17:15:34;0.20;;;0.10;;
76051;SDS011;64751;48.708;9.710;2023-05-10T17:18:02;0.10;;;0.10;;
76051;SDS011;64751;48.708;9.710;2023-05-10T17:20:30;0.20;;;0.08;;
76051;SDS011;64751;48.708;9.710;2023-05-10T17:22:58;0.03;;;0.03;;
76051;SDS011;64751;48.708;9.710;2023-05-10T17:25:29;0.10;;;0.10;;
76051;SDS011;64751;48.708;9.710;2023-05-10T17:27:56;0.20;;;0.10;;
76051;SDS011;64751;48.708;9.710;2023-05-10T17:30:24;0.10;;;0.10;;
76051;SDS011;64751;48.708;9.710;2023-05-10T17:32:53;0.10;;;0.10;;
76051;SDS011;64751;48.708;9.710;2023-05-10T17:35:21;0.20;;;0.20;;
76051;SDS011;64751;48.708;9.710;2023-05-10T17:37:49;0.05;;;0.05;;
76051;SDS011;64751;48.708;9.710;2023-05-10T17:40:16;0.10;;;0.10;;
76051;SDS011;64751;48.708;9.710;2023-05-10T17:42:46;0.10;;;0.10;;
76051;SDS011;64751;48.708;9.710;2023-05-10T17:45:13;0.15;;;0.15;;
76051;SDS011;64751;48.708;9.710;2023-05-10T17:47:41;0.03;;;0.03;;
76051;SDS011;64751;48.708;9.710;2023-05-10T17:50:09;0.32;;;0.20;;
76051;SDS011;64751;48.708;9.710;2023-05-10T17:52:37;0.00;;;0.00;;
76051;SDS011;64751;48.708;9.710;2023-05-10T17:55:05;0.10;;;0.10;;
76051;SDS011;64751;48.708;9.710;2023-05-10T17:57:33;0.08;;;0.05;;
76051;SDS011;64751;48.708;9.710;2023-05-10T18:00:05;0.20;;;0.10;;
76051;SDS011;64751;48.708;9.710;2023-05-10T18:02:34;0.10;;;0.10;;
76051;SDS011;64751;48.708;9.710;2023-05-10T18:05:02;0.10;;;0.10;;
76051;SDS011;64751;48.708;9.710;2023-05-10T18:07:30;0.10;;;0.10;;
76051;SDS011;64751;48.708;9.710;2023-05-10T18:09:58;0.10;;;0.10;;
76051;SDS011;64751;48.708;9.710;2023-05-10T18:12:26;0.13;;;0.10;;
76051;SDS011;64751;48.708;9.710;2023-05-10T18:14:54;0.00;;;0.00;;
76051;SDS011;64751;48.708;9.710;2023-05-10T18:17:23;0.10;;;0.10;;
76051;SDS011;64751;48.708;9.710;2023-05-10T18:19:53;0.00;;;0.00;;
76051;SDS011;64751;48.708;9.710;2023-05-10T18:22:21;0.05;;;0.05;;
76051;SDS011;64751;48.708;9.710;2023-05-10T18:24:49;0.10;;;0.10;;
76051;SDS011;64751;48.708;9.710;2023-05-10T18:27:16;0.10;;;0.10;;
76051;SDS011;64751;48.708;9.710;2023-05-10T18:29:44;0.08;;;0.03;;
76051;SDS011;64751;48.708;9.710;2023-05-10T18:32:12;0.20;;;0.20;;
76051;SDS011;64751;48.708;9.710;2023-05-10T18:34:41;0.32;;;0.20;;
76051;SDS011;64751;48.708;9.710;2023-05-10T18:37:09;0.13;;;0.13;;
76051;SDS011;64751;48.708;9.710;2023-05-10T18:39:36;0.00;;;0.00;;
76051;SDS011;64751;48.708;9.710;2023-05-10T18:42:04;0.10;;;0.00;;
76051;SDS011;64751;48.708;9.710;2023-05-10T18:44:32;0.20;;;0.20;;
76051;SDS011;64751;48.708;9.710;2023-05-10T18:47:00;0.30;;;0.20;;
76051;SDS011;64751;48.708;9.710;2023-05-10T18:49:28;1.27;;;0.50;;
76051;SDS011;64751;48.708;9.710;2023-05-10T18:51:57;328.23;;;140.80;;
76051;SDS011;64751;48.708;9.710;2023-05-10T18:54:24;298.23;;;132.23;;
76051;SDS011;64751;48.708;9.710;2023-05-10T18:56:52;305.83;;;125.20;;
76051;SDS011;64751;48.708;9.710;2023-05-10T18:59:19;233.23;;;102.10;;
76051;SDS011;64751;48.708;9.710;2023-05-10T19:01:47;444.83;;;188.32;;
76051;SDS011;64751;48.708;9.710;2023-05-10T19:04:15;356.20;;;164.02;;
76051;SDS011;64751;48.708;9.710;2023-05-10T19:06:43;166.57;;;70.07;;
76051;SDS011;64751;48.708;9.710;2023-05-10T19:09:12;312.52;;;139.30;;
76051;SDS011;64751;48.708;9.710;2023-05-10T19:11:40;314.23;;;132.13;;
76051;SDS011;64751;48.708;9.710;2023-05-10T19:14:08;278.10;;;118.82;;
76051;SDS011;64751;48.708;9.710;2023-05-10T19:16:36;313.20;;;132.65;;
76051;SDS011;64751;48.708;9.710;2023-05-10T19:19:04;202.85;;;86.97;;
76051;SDS011;64751;48.708;9.710;2023-05-10T19:21:32;86.53;;;48.08;;
76051;SDS011;64751;48.708;9.710;2023-05-10T19:24:00;178.90;;;79.05;;
76051;SDS011;64751;48.708;9.710;2023-05-10T19:26:29;38.25;;;23.05;;
76051;SDS011;64751;48.708;9.710;2023-05-10T19:28:57;277.02;;;116.97;;
76051;SDS011;64751;48.708;9.710;2023-05-10T19:31:24;207.80;;;82.30;;
76051;SDS011;64751;48.708;9.710;2023-05-10T19:33:52;115.00;;;53.33;;
76051;SDS011;64751;48.708;9.710;2023-05-10T19:36:20;90.13;;;49.80;;
76051;SDS011;64751;48.708;9.710;2023-05-10T19:38:47;105.72;;;47.35;;
76051;SDS011;64751;48.708;9.710;2023-05-10T19:41:15;234.40;;;89.32;;
76051;SDS011;64751;48.708;9.710;2023-05-10T19:43:45;102.47;;;50.13;;
76051;SDS011;64751;48.708;9.710;2023-05-10T19:46:13;96.38;;;48.88;;
76051;SDS011;64751;48.708;9.710;2023-05-10T19:48:41;154.85;;;66.82;;
76051;SDS011;64751;48.708;9.710;2023-05-10T19:51:08;177.20;;;75.57;;
76051;SDS011;64751;48.708;9.710;2023-05-10T19:53:37;1.13;;;0.73;;
76051;SDS011;64751;48.708;9.710;2023-05-10T19:56:09;0.50;;;0.17;;
76051;SDS011;64751;48.708;9.710;2023-05-10T19:58:37;0.45;;;0.32;;
76051;SDS011;64751;48.708;9.710;2023-05-10T20:01:06;0.47;;;0.20;;
76051;SDS011;64751;48.708;9.710;2023-05-10T20:03:34;0.10;;;0.10;;
76051;SDS011;64751;48.708;9.710;2023-05-10T20:06:02;0.28;;;0.10;;
76051;SDS011;64751;48.708;9.710;2023-05-10T20:08:30;0.10;;;0.10;;
76051;SDS011;64751;48.708;9.710;2023-05-10T20:10:58;0.10;;;0.10;;
76051;SDS011;64751;48.708;9.710;2023-05-10T20:13:27;0.20;;;0.20;;
76051;SDS011;64751;48.708;9.710;2023-05-10T20:15:55;0.45;;;0.20;;
76051;SDS011;64751;48.708;9.710;2023-05-10T20:18:25;0.40;;;0.20;;
76051;SDS011;64751;48.708;9.710;2023-05-10T20:20:53;0.20;;;0.10;;
76051;SDS011;64751;48.708;9.710;2023-05-10T20:23:21;1.10;;;0.50;;
76051;SDS011;64751;48.708;9.710;2023-05-10T20:25:49;0.10;;;0.10;;
76051;SDS011;64751;48.708;9.710;2023-05-10T20:28:20;0.20;;;0.15;;
76051;SDS011;64751;48.708;9.710;2023-05-10T20:33:16;0.20;;;0.13;;
76051;SDS011;64751;48.708;9.710;2023-05-10T20:35:45;0.50;;;0.20;;
76051;SDS011;64751;48.708;9.710;2023-05-10T20:38:14;0.13;;;0.10;;
76051;SDS011;64751;48.708;9.710;2023-05-10T20:40:43;0.10;;;0.10;;
76051;SDS011;64751;48.708;9.710;2023-05-10T20:43:11;0.10;;;0.10;;
76051;SDS011;64751;48.708;9.710;2023-05-10T20:45:39;0.30;;;0.20;;
76051;SDS011;64751;48.708;9.710;2023-05-10T20:48:08;0.20;;;0.20;;
76051;SDS011;64751;48.708;9.710;2023-05-10T20:50:35;0.05;;;0.05;;
76051;SDS011;64751;48.708;9.710;2023-05-10T20:53:04;0.20;;;0.10;;
76051;SDS011;64751;48.708;9.710;2023-05-10T20:55:32;0.10;;;0.10;;
76051;SDS011;64751;48.708;9.710;2023-05-10T20:58:00;0.20;;;0.20;;
76051;SDS011;64751;48.708;9.710;2023-05-10T21:00:28;0.20;;;0.20;;
76051;SDS011;64751;48.708;9.710;2023-05-10T21:02:55;0.10;;;0.10;;
76051;SDS011;64751;48.708;9.710;2023-05-10T21:05:23;0.08;;;0.08;;
76051;SDS011;64751;48.708;9.710;2023-05-10T21:07:51;0.10;;;0.10;;
76051;SDS011;64751;48.708;9.710;2023-05-10T21:10:21;0.05;;;0.05;;
76051;SDS011;64751;48.708;9.710;2023-05-10T21:12:50;0.20;;;0.10;;
76051;SDS011;64751;48.708;9.710;2023-05-10T21:15:18;0.47;;;0.20;;
76051;SDS011;64751;48.708;9.710;2023-05-10T21:17:47;0.60;;;0.10;;
76051;SDS011;64751;48.708;9.710;2023-05-10T21:20:15;0.25;;;0.10;;
76051;SDS011;64751;48.708;9.710;2023-05-10T21:22:43;0.10;;;0.10;;
76051;SDS011;64751;48.708;9.710;2023-05-10T21:25:10;0.10;;;0.10;;
76051;SDS011;64751;48.708;9.710;2023-05-10T21:27:40;0.05;;;0.05;;
76051;SDS011;64751;48.708;9.710;2023-05-10T21:30:08;0.10;;;0.10;;
76051;SDS011;64751;48.708;9.710;2023-05-10T21:32:36;0.10;;;0.10;;
76051;SDS011;64751;48.708;9.710;2023-05-10T21:35:04;0.10;;;0.10;;
76051;SDS011;64751;48.708;9.710;2023-05-10T21:37:32;0.20;;;0.20;;
76051;SDS011;64751;48.708;9.710;2023-05-10T21:40:01;0.10;;;0.10;;
76051;SDS011;64751;48.708;9.710;2023-05-10T21:42:29;0.05;;;0.05;;
76051;SDS011;64751;48.708;9.710;2023-05-10T21:44:59;0.15;;;0.10;;
76051;SDS011;64751;48.708;9.710;2023-05-10T21:47:26;0.25;;;0.10;;
76051;SDS011;64751;48.708;9.710;2023-05-10T21:49:54;0.17;;;0.10;;
76051;SDS011;64751;48.708;9.710;2023-05-10T21:52:22;0.10;;;0.10;;
76051;SDS011;64751;48.708;9.710;2023-05-10T21:54:50;0.05;;;0.03;;
76051;SDS011;64751;48.708;9.710;2023-05-10T21:57:17;0.05;;;0.05;;
76051;SDS011;64751;48.708;9.710;2023-05-10T21:59:46;0.20;;;0.05;;
